createdAt,value
2018-03-19T00:02:24.252Z,54.30
2018-03-19T00:04:50.365Z,54.20
2018-03-19T00:09:49.231Z,53.90
2018-03-19T00:12:16.004Z,53.90
2018-03-19T00:14:42.749Z,53.70
2018-03-19T00:17:09.493Z,53.20
2018-03-19T00:19:35.513Z,53.20
2018-03-19T00:22:01.497Z,54.10
2018-03-19T00:24:27.521Z,53.20
2018-03-19T00:26:53.684Z,53.70
2018-03-19T00:29:19.827Z,53.60
2018-03-19T00:31:46.650Z,53.30
2018-03-19T00:34:13.391Z,53.10
2018-03-19T00:36:39.414Z,53.10
2018-03-19T00:39:05.468Z,52.90
2018-03-19T00:41:32.192Z,53.10
2018-03-19T00:43:58.174Z,53.10
2018-03-19T00:46:25.091Z,52.90
2018-03-19T00:48:51.474Z,52.90
2018-03-19T00:51:17.471Z,52.80
2018-03-19T00:53:43.513Z,52.60
2018-03-19T00:56:09.696Z,52.90
2018-03-19T00:58:35.685Z,52.60
2018-03-19T01:01:01.651Z,52.30
2018-03-19T01:03:28.383Z,52.40
2018-03-19T01:05:54.351Z,52.40
2018-03-19T01:08:20.328Z,52.40
2018-03-19T01:10:46.337Z,52.20
2018-03-19T01:13:12.431Z,52.50
2018-03-19T01:15:38.502Z,51.80
2018-03-19T01:18:04.517Z,51.70
2018-03-19T01:20:38.371Z,52.10
2018-03-19T01:23:04.396Z,52.10
2018-03-19T01:25:30.354Z,52.10
2018-03-19T01:27:56.330Z,51.80
2018-03-19T01:30:22.356Z,51.20
2018-03-19T01:32:48.358Z,51.30
2018-03-19T01:35:14.470Z,51.60
2018-03-19T01:37:40.538Z,52.10
2018-03-19T01:40:06.554Z,52.10
2018-03-19T01:42:32.524Z,52.60
2018-03-19T01:44:58.485Z,52.30
2018-03-19T01:47:24.473Z,52.50
2018-03-19T01:49:50.460Z,52.50
2018-03-19T01:52:19.058Z,52.20
2018-03-19T01:54:45.862Z,52.30
2018-03-19T01:57:11.969Z,52.30
2018-03-19T01:59:38.784Z,52.50
2018-03-19T02:02:04.781Z,52.50
2018-03-19T02:04:30.763Z,52.30
2018-03-19T02:06:56.747Z,52.70
2018-03-19T02:09:22.720Z,52.40
2018-03-19T02:11:48.693Z,52.30
2018-03-19T02:14:15.462Z,52.80
2018-03-19T02:16:41.582Z,52.80
2018-03-19T02:19:07.708Z,52.50
2018-03-19T02:21:34.452Z,52.80
2018-03-19T02:24:00.416Z,52.10
2018-03-19T02:26:27.142Z,52.50
2018-03-19T02:28:53.102Z,52.50
2018-03-19T02:31:19.842Z,52.30
2018-03-19T02:33:45.902Z,52.20
2018-03-19T02:36:12.820Z,52.60
2018-03-19T02:38:39.714Z,52.50
2018-03-19T02:41:05.685Z,52.40
2018-03-19T02:43:31.661Z,52.80
2018-03-19T02:45:57.629Z,52.80
2018-03-19T02:48:23.604Z,52.90
2018-03-19T02:50:49.629Z,52.70
2018-03-19T02:53:15.699Z,52.80
2018-03-19T02:55:41.775Z,53.30
2018-03-19T02:58:07.851Z,53.00
2018-03-19T03:00:34.610Z,53.10
2018-03-19T03:03:00.575Z,53.10
2018-03-19T03:05:27.296Z,53.80
2018-03-19T03:07:53.277Z,53.80
2018-03-19T03:10:19.280Z,53.60
2018-03-19T03:12:45.332Z,53.80
2018-03-19T03:15:11.587Z,54.10
2018-03-19T03:17:37.673Z,54.30
2018-03-19T03:20:03.675Z,54.40
2018-03-19T03:22:29.653Z,54.00
2018-03-19T03:24:55.623Z,53.90
2018-03-19T03:27:22.344Z,54.00
2018-03-19T03:29:48.333Z,54.10
2018-03-19T03:32:14.360Z,53.70
2018-03-19T03:34:40.434Z,53.90
2018-03-19T03:37:06.408Z,54.20
2018-03-19T03:39:32.413Z,54.30
2018-03-19T03:41:58.412Z,54.50
2018-03-19T03:44:24.403Z,54.40
2018-03-19T03:46:50.372Z,54.70
2018-03-19T03:49:17.141Z,54.10
2018-03-19T03:51:43.231Z,54.10
2018-03-19T03:54:10.102Z,54.40
2018-03-19T03:56:36.897Z,54.30
2018-03-19T03:59:02.901Z,54.30
2018-03-19T04:01:29.609Z,54.20
2018-03-19T04:03:55.575Z,54.10
2018-03-19T04:06:21.594Z,54.60
2018-03-19T04:08:47.593Z,54.70
2018-03-19T04:11:13.709Z,54.50
2018-03-19T04:13:39.793Z,54.60
2018-03-19T04:16:05.788Z,54.60
2018-03-19T04:18:31.789Z,54.30
2018-03-19T04:20:57.773Z,54.40
2018-03-19T04:23:23.754Z,54.30
2018-03-19T04:25:49.756Z,54.40
2018-03-19T04:28:15.860Z,54.30
2018-03-19T04:30:42.709Z,54.40
2018-03-19T04:33:09.545Z,54.40
2018-03-19T04:35:36.292Z,54.60
2018-03-19T04:38:02.319Z,54.60
2018-03-19T04:40:28.279Z,54.70
2018-03-19T04:42:54.278Z,54.20
2018-03-19T04:45:20.262Z,54.70
2018-03-19T04:47:47.023Z,55.00
2018-03-19T04:50:13.858Z,55.00
2018-03-19T04:52:39.953Z,55.00
2018-03-19T04:55:05.950Z,55.10
2018-03-19T04:57:32.707Z,55.30
2018-03-19T04:59:59.436Z,55.30
2018-03-19T05:02:25.420Z,55.20
2018-03-19T05:04:51.417Z,54.80
2018-03-19T05:07:18.146Z,55.30
2018-03-19T05:09:44.263Z,55.30
2018-03-19T05:12:10.308Z,55.20
2018-03-19T05:14:36.365Z,55.60
2018-03-19T05:17:03.192Z,55.60
2018-03-19T05:19:29.157Z,55.60
2018-03-19T05:21:55.123Z,55.70
2018-03-19T05:24:21.880Z,56.00
2018-03-19T05:26:47.805Z,56.00
2018-03-19T05:29:14.560Z,55.90
2018-03-19T05:31:41.416Z,56.50
2018-03-19T05:34:07.446Z,56.40
2018-03-19T05:36:34.178Z,56.30
2018-03-19T05:39:00.183Z,56.30
2018-03-19T05:41:26.165Z,56.30
2018-03-19T05:43:52.903Z,56.30
2018-03-19T05:46:19.626Z,56.10
2018-03-19T05:48:45.747Z,56.00
2018-03-19T05:51:13.192Z,55.80
2018-03-19T05:53:39.362Z,55.90
2018-03-19T05:56:05.293Z,55.70
2018-03-19T05:58:31.291Z,56.00
2018-03-19T06:00:58.024Z,56.00
2018-03-19T06:03:24.033Z,56.00
2018-03-19T06:05:50.008Z,55.60
2018-03-19T06:08:16.103Z,55.70
2018-03-19T06:10:42.259Z,55.50
2018-03-19T06:13:08.376Z,55.30
2018-03-19T06:15:34.364Z,55.30
2018-03-19T06:18:01.091Z,55.80
2018-03-19T06:20:27.087Z,55.80
2018-03-19T06:22:53.083Z,55.80
2018-03-19T06:25:19.045Z,54.80
2018-03-19T06:27:45.233Z,55.10
2018-03-19T06:30:12.059Z,55.00
2018-03-19T06:32:38.139Z,54.40
2018-03-19T06:35:04.909Z,53.30
2018-03-19T06:37:31.607Z,53.50
2018-03-19T06:39:57.584Z,53.50
2018-03-19T06:42:23.562Z,53.80
2018-03-19T06:44:49.554Z,53.60
2018-03-19T06:47:15.697Z,53.60
2018-03-19T06:49:41.634Z,53.20
2018-03-19T06:52:07.634Z,53.30
2018-03-19T06:54:33.604Z,52.70
2018-03-19T06:56:59.561Z,52.70
2018-03-19T06:59:25.558Z,52.80
2018-03-19T07:01:51.506Z,52.70
2018-03-19T07:04:17.497Z,51.90
2018-03-19T07:06:43.481Z,52.00
2018-03-19T07:09:09.492Z,52.00
2018-03-19T07:11:36.268Z,51.90
2018-03-19T07:14:02.206Z,51.80
2018-03-19T07:16:28.170Z,52.00
2018-03-19T07:18:54.155Z,52.20
2018-03-19T07:21:20.853Z,51.00
2018-03-19T07:23:46.820Z,51.00
2018-03-19T07:26:12.774Z,51.10
2018-03-19T07:28:39.535Z,51.40
2018-03-19T07:31:06.293Z,51.10
2018-03-19T07:33:32.263Z,51.10
2018-03-19T07:35:58.229Z,51.70
2018-03-19T07:38:24.265Z,51.10
2018-03-19T07:40:50.233Z,51.60
2018-03-19T07:43:16.209Z,51.60
2018-03-19T07:45:42.174Z,52.20
2018-03-19T07:48:08.152Z,51.90
2018-03-19T07:50:34.123Z,52.50
2018-03-19T07:53:00.118Z,51.80
2018-03-19T07:55:26.113Z,51.60
2018-03-19T07:57:52.088Z,52.10
2018-03-19T08:00:18.121Z,52.20
2018-03-19T08:02:44.084Z,52.30
2018-03-19T08:05:10.250Z,52.70
2018-03-19T08:07:36.222Z,52.70
2018-03-19T08:10:02.192Z,52.60
2018-03-19T08:12:28.173Z,52.80
2018-03-19T08:14:54.895Z,52.90
2018-03-19T08:17:20.909Z,52.30
2018-03-19T08:19:46.892Z,51.80
2018-03-19T08:22:13.613Z,51.50
2018-03-19T08:24:39.620Z,51.20
2018-03-19T08:27:05.610Z,50.90
2018-03-19T08:29:31.601Z,49.70
2018-03-19T08:31:57.588Z,49.50
2018-03-19T08:34:23.718Z,49.10
2018-03-19T08:36:49.693Z,47.60
2018-03-19T08:39:15.652Z,47.30
2018-03-19T08:41:41.657Z,46.00
2018-03-19T08:44:07.648Z,46.00
2018-03-19T08:46:33.629Z,45.80
2018-03-19T08:48:59.629Z,46.10
2018-03-19T08:51:26.358Z,46.20
2018-03-19T08:53:52.333Z,46.20
2018-03-19T08:56:19.028Z,45.90
2018-03-19T08:58:45.028Z,45.80
2018-03-19T09:01:11.023Z,45.00
2018-03-19T09:03:37.164Z,45.30
2018-03-19T09:06:03.160Z,44.90
2018-03-19T09:08:29.176Z,43.90
2018-03-19T09:10:55.172Z,43.50
2018-03-19T09:13:21.153Z,42.70
2018-03-19T09:15:47.124Z,42.00
2018-03-19T09:18:13.120Z,41.40
2018-03-19T09:20:39.088Z,41.10
2018-03-19T09:23:05.042Z,40.70
2018-03-19T09:25:31.040Z,40.40
2018-03-19T09:27:57.024Z,41.30
2018-03-19T09:30:23.036Z,41.00
2018-03-19T09:32:49.023Z,41.30
2018-03-19T09:35:15.784Z,42.40
2018-03-19T09:37:41.710Z,42.40
2018-03-19T09:40:08.439Z,41.50
2018-03-19T09:42:34.406Z,41.50
2018-03-19T09:45:00.393Z,40.80
2018-03-19T09:47:26.368Z,40.90
2018-03-19T09:49:53.076Z,39.80
2018-03-19T09:52:19.028Z,39.80
2018-03-19T09:54:45.000Z,39.90
2018-03-19T09:57:10.963Z,40.60
2018-03-19T09:59:36.937Z,41.20
2018-03-19T10:02:02.905Z,41.90
2018-03-19T10:04:28.910Z,42.10
2018-03-19T10:06:54.914Z,40.80
2018-03-19T10:09:20.900Z,41.90
2018-03-19T10:11:47.616Z,42.70
2018-03-19T10:14:13.600Z,42.80
2018-03-19T10:16:39.568Z,41.90
2018-03-19T10:19:05.552Z,41.80
2018-03-19T10:21:32.302Z,41.60
2018-03-19T10:23:59.070Z,42.10
2018-03-19T10:26:25.065Z,41.60
2018-03-19T10:28:52.514Z,41.80
2018-03-19T10:31:18.515Z,41.80
2018-03-19T10:33:44.496Z,42.20
2018-03-19T10:36:10.518Z,42.70
2018-03-19T10:38:36.522Z,43.00
2018-03-19T10:41:02.473Z,42.30
2018-03-19T10:43:28.580Z,42.60
2018-03-19T10:45:55.304Z,43.10
2018-03-19T10:48:22.765Z,41.60
2018-03-19T10:50:48.753Z,41.60
2018-03-19T10:53:14.753Z,42.60
2018-03-19T10:55:40.892Z,41.80
2018-03-19T10:58:07.608Z,42.10
2018-03-19T11:00:33.592Z,42.00
2018-03-19T11:03:05.255Z,41.40
2018-03-19T11:05:31.253Z,41.40
2018-03-19T11:08:03.318Z,42.70
2018-03-19T11:10:40.733Z,41.60
2018-03-19T11:13:06.695Z,41.00
2018-03-19T11:15:32.673Z,40.70
2018-03-19T11:17:58.644Z,40.00
2018-03-19T11:20:24.646Z,40.20
2018-03-19T11:22:50.615Z,40.60
2018-03-19T11:25:16.591Z,39.80
2018-03-19T11:27:43.284Z,39.70
2018-03-19T11:30:09.261Z,39.60
2018-03-19T11:32:35.220Z,39.50
2018-03-19T11:35:01.208Z,39.80
2018-03-19T11:37:27.188Z,40.30
2018-03-19T11:39:53.888Z,40.40
2018-03-19T11:42:19.868Z,40.40
2018-03-19T11:44:46.588Z,40.10
2018-03-19T11:47:12.588Z,40.10
2018-03-19T11:49:39.277Z,40.30
2018-03-19T11:52:05.249Z,40.30
2018-03-19T11:54:31.985Z,40.00
2018-03-19T11:56:57.994Z,40.00
2018-03-19T11:59:23.991Z,40.70
2018-03-19T12:01:49.968Z,41.30
2018-03-19T12:04:15.928Z,40.70
2018-03-19T12:06:41.909Z,40.60
2018-03-19T12:09:07.877Z,41.40
2018-03-19T12:11:33.869Z,41.10
2018-03-19T12:13:59.856Z,40.90
2018-03-19T12:16:25.892Z,42.10
2018-03-19T12:18:51.948Z,42.10
2018-03-19T12:21:18.669Z,42.90
2018-03-19T12:23:44.640Z,42.20
2018-03-19T12:26:11.376Z,41.70
2018-03-19T12:28:37.376Z,41.00
2018-03-19T12:31:03.401Z,40.30
2018-03-19T12:33:29.406Z,40.50
2018-03-19T12:35:55.475Z,41.00
2018-03-19T12:38:21.445Z,41.10
2018-03-19T12:40:47.441Z,41.00
2018-03-19T12:43:13.421Z,41.90
2018-03-19T12:45:39.380Z,42.00
2018-03-19T12:48:06.118Z,41.40
2018-03-19T12:50:32.091Z,41.00
2018-03-19T12:52:58.070Z,41.10
2018-03-19T12:55:24.784Z,41.40
2018-03-19T12:57:50.768Z,41.40
2018-03-19T13:00:16.730Z,40.30
2018-03-19T13:02:42.766Z,39.60
2018-03-19T13:05:08.775Z,40.00
2018-03-19T13:07:35.597Z,38.20
2018-03-19T13:10:01.689Z,38.90
2018-03-19T13:12:27.676Z,40.00
2018-03-19T13:14:53.631Z,38.90
2018-03-19T13:17:20.360Z,39.40
2018-03-19T13:19:46.308Z,39.40
2018-03-19T13:22:13.008Z,39.30
2018-03-19T13:24:39.020Z,39.20
2018-03-19T13:27:05.781Z,38.20
2018-03-19T13:29:31.754Z,38.20
2018-03-19T13:31:57.731Z,38.80
2018-03-19T13:34:24.433Z,39.10
2018-03-19T13:36:50.395Z,39.10
2018-03-19T13:39:16.393Z,38.50
2018-03-19T13:41:42.360Z,39.10
2018-03-19T13:44:08.389Z,37.90
2018-03-19T13:46:34.388Z,38.50
2018-03-19T13:49:00.375Z,39.40
2018-03-19T13:51:26.349Z,39.10
2018-03-19T13:53:52.321Z,39.30
2018-03-19T13:56:18.295Z,39.50
2018-03-19T13:58:45.005Z,40.60
2018-03-19T14:01:10.986Z,40.60
2018-03-19T14:03:37.729Z,40.80
2018-03-19T14:06:03.754Z,40.80
2018-03-19T14:08:29.737Z,40.70
2018-03-19T14:10:55.722Z,41.40
2018-03-19T14:13:23.228Z,41.30
2018-03-19T14:15:49.148Z,41.20
2018-03-19T14:18:15.881Z,41.00
2018-03-19T14:20:41.898Z,40.90
2018-03-19T14:23:07.954Z,40.70
2018-03-19T14:25:34.015Z,40.90
2018-03-19T14:28:00.047Z,40.40
2018-03-19T14:30:26.680Z,41.20
2018-03-19T14:32:52.650Z,40.60
2018-03-19T14:35:18.608Z,40.60
2018-03-19T14:37:44.576Z,40.40
2018-03-19T14:40:10.576Z,39.30
2018-03-19T14:42:36.601Z,39.50
2018-03-19T14:45:02.574Z,39.40
2018-03-19T14:47:28.564Z,39.40
2018-03-19T14:49:54.517Z,40.30
2018-03-19T14:52:20.493Z,39.70
2018-03-19T14:54:46.702Z,39.30
2018-03-19T14:57:12.701Z,38.90
2018-03-19T14:59:39.470Z,39.30
2018-03-19T15:02:05.505Z,39.80
2018-03-19T15:04:31.521Z,39.50
2018-03-19T15:06:57.457Z,39.50
2018-03-19T15:09:24.179Z,39.00
2018-03-19T15:11:50.168Z,39.00
2018-03-19T15:14:16.158Z,39.70
2018-03-19T15:16:42.137Z,40.30
2018-03-19T15:19:08.200Z,40.30
2018-03-19T15:21:34.253Z,40.20
2018-03-19T15:24:00.220Z,40.30
2018-03-19T15:26:26.941Z,40.20
2018-03-19T15:28:52.965Z,40.20
2018-03-19T15:31:19.012Z,40.70
2018-03-19T15:33:44.920Z,40.50
2018-03-19T15:36:11.004Z,40.30
2018-03-19T15:38:37.728Z,40.40
2018-03-19T15:41:03.816Z,40.40
2018-03-19T15:43:29.817Z,40.60
2018-03-19T15:45:55.908Z,40.80
2018-03-19T15:48:21.872Z,40.70
2018-03-19T15:50:47.844Z,40.40
2018-03-19T15:53:14.562Z,40.40
2018-03-19T15:55:40.553Z,40.30
2018-03-19T15:58:06.532Z,40.50
2018-03-19T16:00:32.520Z,40.40
2018-03-19T16:02:58.548Z,39.80
2018-03-19T16:05:26.056Z,40.20
2018-03-19T16:07:52.024Z,40.20
2018-03-19T16:10:18.017Z,40.00
2018-03-19T16:12:43.992Z,40.00
2018-03-19T16:15:09.965Z,40.20
2018-03-19T16:17:35.941Z,40.70
2018-03-19T16:20:01.949Z,40.80
2018-03-19T16:22:27.937Z,41.00
2018-03-19T16:24:53.913Z,40.90
2018-03-19T16:27:19.903Z,41.40
2018-03-19T16:29:45.862Z,41.40
2018-03-19T16:32:12.576Z,41.70
2018-03-19T16:34:38.553Z,41.60
2018-03-19T16:37:05.284Z,42.00
2018-03-19T16:39:31.329Z,42.00
2018-03-19T16:41:58.045Z,41.70
2018-03-19T16:44:24.005Z,41.70
2018-03-19T16:46:49.987Z,42.00
2018-03-19T16:49:15.948Z,42.00
2018-03-19T16:51:41.935Z,42.20
2018-03-19T16:54:08.653Z,42.70
2018-03-19T16:56:34.866Z,42.60
2018-03-19T16:59:01.141Z,43.00
2018-03-19T17:01:27.196Z,43.00
2018-03-19T17:03:53.908Z,43.30
2018-03-19T17:06:19.886Z,43.20
2018-03-19T17:08:46.653Z,43.50
2018-03-19T17:11:12.623Z,43.50
2018-03-19T17:13:38.619Z,43.90
2018-03-19T17:16:05.381Z,44.40
2018-03-19T17:18:32.116Z,44.40
2018-03-19T17:20:59.033Z,44.80
2018-03-19T17:23:25.080Z,44.80
2018-03-19T17:25:51.058Z,45.00
2018-03-19T17:28:17.807Z,45.60
2018-03-19T17:30:44.540Z,45.90
2018-03-19T17:33:10.500Z,45.80
2018-03-19T17:35:37.254Z,46.30
2018-03-19T17:38:03.257Z,46.20
2018-03-19T17:40:29.518Z,46.50
2018-03-19T17:42:56.383Z,46.70
2018-03-19T17:45:22.788Z,47.00
2018-03-19T17:47:48.819Z,47.20
2018-03-19T17:50:15.413Z,47.40
2018-03-19T17:52:41.412Z,47.40
2018-03-19T17:55:07.400Z,47.70
2018-03-19T17:57:33.529Z,47.90
2018-03-19T18:00:00.430Z,49.00
2018-03-19T18:02:26.433Z,49.00
2018-03-19T18:04:52.388Z,49.00
2018-03-19T18:07:18.362Z,49.40
2018-03-19T18:09:44.364Z,49.70
2018-03-19T18:12:10.343Z,49.70
2018-03-19T18:14:37.146Z,50.00
2018-03-19T18:17:03.159Z,50.00
2018-03-19T18:19:29.176Z,49.80
2018-03-19T18:21:56.026Z,50.90
2018-03-19T18:24:22.757Z,51.70
2018-03-19T18:26:48.736Z,51.70
2018-03-19T18:29:14.726Z,51.90
2018-03-19T18:31:42.209Z,51.40
2018-03-19T18:34:08.189Z,51.30
2018-03-19T18:36:34.251Z,51.00
2018-03-19T18:39:00.260Z,51.90
2018-03-19T18:41:26.364Z,52.70
2018-03-19T18:43:52.448Z,52.70
2018-03-19T18:46:18.414Z,51.90
2018-03-19T18:48:44.401Z,50.10
2018-03-19T18:51:10.378Z,49.60
2018-03-19T18:53:37.119Z,49.30
2018-03-19T18:56:03.168Z,49.10
2018-03-19T18:58:29.249Z,49.50
2018-03-19T19:00:55.238Z,49.10
2018-03-19T19:03:21.201Z,49.30
2018-03-19T19:05:47.931Z,50.70
2018-03-19T19:08:13.897Z,50.60
2018-03-19T19:10:40.756Z,51.00
2018-03-19T19:13:07.561Z,50.30
2018-03-19T19:15:33.583Z,50.20
2018-03-19T19:17:59.596Z,49.90
2018-03-19T19:20:25.704Z,50.00
2018-03-19T19:22:58.726Z,50.40
2018-03-19T19:25:24.776Z,50.80
2018-03-19T19:27:50.756Z,50.70
2018-03-19T19:30:16.757Z,50.60
2018-03-19T19:32:42.780Z,51.10
2018-03-19T19:35:08.751Z,51.70
2018-03-19T19:37:34.712Z,51.00
2018-03-19T19:40:00.868Z,51.70
2018-03-19T19:42:27.609Z,51.80
2018-03-19T19:44:53.565Z,51.80
2018-03-19T19:47:20.306Z,51.30
2018-03-19T19:49:47.020Z,52.00
2018-03-19T19:52:12.980Z,51.90
2018-03-19T19:54:39.012Z,51.80
2018-03-19T19:57:05.008Z,51.40
2018-03-19T19:59:30.993Z,52.10
2018-03-19T20:01:57.788Z,51.90
2018-03-19T20:04:23.752Z,51.90
2018-03-19T20:06:49.724Z,51.80
2018-03-19T20:09:16.490Z,51.80
2018-03-19T20:11:43.250Z,52.00
2018-03-19T20:14:09.228Z,52.00
2018-03-19T20:16:35.226Z,52.00
2018-03-19T20:19:01.326Z,52.00
2018-03-19T20:21:27.338Z,51.70
2018-03-19T20:23:53.386Z,52.00
2018-03-19T20:26:19.284Z,51.70
2018-03-19T20:28:45.254Z,52.00
2018-03-19T20:31:11.258Z,52.00
2018-03-19T20:33:37.214Z,52.00
2018-03-19T20:36:03.249Z,52.20
2018-03-19T20:38:29.276Z,52.20
2018-03-19T20:40:55.253Z,51.90
2018-03-19T20:43:21.216Z,52.20
2018-03-19T20:45:47.245Z,52.00
2018-03-19T20:48:13.953Z,52.70
2018-03-19T20:50:39.932Z,52.70
2018-03-19T20:53:06.710Z,52.10
2018-03-19T20:55:32.734Z,52.10
2018-03-19T20:57:58.964Z,52.00
2018-03-19T21:00:26.010Z,52.20
2018-03-19T21:02:52.011Z,52.20
2018-03-19T21:05:17.972Z,52.00
2018-03-19T21:07:44.012Z,51.80
2018-03-19T21:10:09.968Z,52.00
2018-03-19T21:12:36.723Z,52.90
2018-03-19T21:15:03.560Z,52.30
2018-03-19T21:17:29.708Z,52.30
2018-03-19T21:19:55.729Z,52.80
2018-03-19T21:22:21.732Z,52.90
2018-03-19T21:24:47.696Z,52.90
2018-03-19T21:27:13.664Z,52.60
2018-03-19T21:29:40.541Z,52.80
2018-03-19T21:32:06.534Z,52.40
2018-03-19T21:34:33.273Z,52.40
2018-03-19T21:36:59.352Z,51.90
2018-03-19T21:39:25.359Z,52.80
2018-03-19T21:41:51.329Z,52.40
2018-03-19T21:44:17.312Z,52.40
2018-03-19T21:46:43.309Z,52.90
2018-03-19T21:49:09.282Z,52.70
2018-03-19T21:51:35.288Z,52.60
2018-03-19T21:54:01.304Z,52.40
2018-03-19T21:56:27.326Z,53.10
2018-03-19T21:58:54.050Z,52.30
2018-03-19T22:01:20.045Z,52.30
2018-03-19T22:03:46.016Z,52.60
2018-03-19T22:06:13.788Z,53.50
2018-03-19T22:08:39.753Z,53.50
2018-03-19T22:11:06.455Z,51.30
2018-03-19T22:13:32.447Z,51.10
2018-03-19T22:15:59.249Z,51.00
2018-03-19T22:18:25.245Z,50.90
2018-03-19T22:20:51.953Z,52.10
2018-03-19T22:23:17.939Z,52.10
2018-03-19T22:25:43.908Z,52.10
2018-03-19T22:28:09.900Z,50.90
2018-03-19T22:30:36.610Z,50.10
2018-03-19T22:33:02.725Z,50.00
2018-03-19T22:35:28.811Z,50.60
2018-03-19T22:37:55.528Z,51.10
2018-03-19T22:40:21.505Z,50.60
2018-03-19T22:42:48.272Z,50.60
2018-03-19T22:45:14.996Z,50.20
2018-03-19T22:47:40.974Z,50.20
2018-03-19T22:50:06.997Z,49.10
2018-03-19T22:52:33.745Z,49.80
2018-03-19T22:55:00.540Z,50.20
2018-03-19T22:57:26.616Z,50.10
2018-03-19T22:59:52.579Z,50.20
2018-03-19T23:02:19.308Z,48.50
2018-03-19T23:04:49.214Z,48.50
2018-03-19T23:07:15.182Z,48.30
2018-03-19T23:09:41.893Z,48.00
2018-03-19T23:12:07.909Z,48.00
2018-03-19T23:14:33.869Z,48.40
2018-03-19T23:16:59.873Z,48.00
2018-03-19T23:19:25.880Z,47.90
2018-03-19T23:21:52.585Z,47.00
2018-03-19T23:24:18.545Z,47.00
2018-03-19T23:26:44.778Z,46.50
2018-03-19T23:29:10.744Z,46.70
2018-03-19T23:31:37.461Z,46.20
2018-03-19T23:34:03.464Z,46.10
2018-03-19T23:36:30.077Z,46.20
2018-03-19T23:38:56.852Z,46.10
2018-03-19T23:41:22.836Z,46.00
2018-03-19T23:43:48.796Z,46.00
2018-03-19T23:46:15.507Z,46.10
2018-03-19T23:48:41.518Z,46.10
2018-03-19T23:51:07.532Z,45.60
2018-03-19T23:53:34.307Z,45.90
2018-03-19T23:56:00.337Z,45.90
2018-03-19T23:58:26.367Z,45.80
